createdAt,value
2019-05-17T00:01:22.548Z,27.20
2019-05-17T00:03:53.589Z,27.30
2019-05-17T00:06:24.494Z,27.30
2019-05-17T00:08:56.437Z,27.40
2019-05-17T00:11:27.461Z,27.40
2019-05-17T00:13:58.383Z,27.50
2019-05-17T00:16:29.279Z,27.50
2019-05-17T00:19:00.311Z,27.50
2019-05-17T00:21:31.136Z,27.50
2019-05-17T00:24:01.830Z,27.50
2019-05-17T00:26:39.694Z,27.50
2019-05-17T00:29:06.956Z,27.60
2019-05-17T00:31:37.745Z,27.60
2019-05-17T00:34:08.624Z,27.60
2019-05-17T00:36:39.492Z,27.60
2019-05-17T00:39:10.479Z,27.70
2019-05-17T00:41:41.266Z,27.70
2019-05-17T00:44:12.131Z,27.70
2019-05-17T00:46:43.044Z,27.70
2019-05-17T00:49:14.352Z,27.70
2019-05-17T00:51:47.262Z,27.70
2019-05-17T00:54:17.598Z,27.80
2019-05-17T00:56:48.738Z,27.80
2019-05-17T00:59:19.584Z,27.90
2019-05-17T01:01:50.636Z,27.90
2019-05-17T01:04:21.370Z,28.00
2019-05-17T01:06:52.426Z,28.00
2019-05-17T01:09:23.178Z,28.00
2019-05-17T01:11:53.893Z,28.10
2019-05-17T01:14:26.468Z,28.10
2019-05-17T01:16:56.685Z,28.20
2019-05-17T01:19:27.768Z,28.30
2019-05-17T01:21:58.788Z,28.40
2019-05-17T01:24:29.783Z,28.40
2019-05-17T01:27:00.770Z,28.50
2019-05-17T01:29:31.808Z,28.60
2019-05-17T01:32:02.597Z,28.60
2019-05-17T01:34:33.466Z,28.70
2019-05-17T01:37:06.325Z,28.80
2019-05-17T01:39:37.557Z,28.80
2019-05-17T01:42:08.399Z,28.90
2019-05-17T01:44:39.259Z,29.00
2019-05-17T01:47:14.064Z,29.10
2019-05-17T01:49:46.996Z,29.20
2019-05-17T01:52:17.461Z,29.20
2019-05-17T01:54:48.138Z,29.30
2019-05-17T01:57:19.054Z,29.30
2019-05-17T01:59:50.080Z,29.40
2019-05-17T02:02:22.021Z,29.40
2019-05-17T02:04:53.981Z,29.60
2019-05-17T02:07:26.619Z,29.60
2019-05-17T02:09:56.980Z,29.80
2019-05-17T02:12:27.672Z,29.80
2019-05-17T02:14:58.630Z,30.00
2019-05-17T02:17:29.516Z,30.00
2019-05-17T02:20:00.479Z,30.10
2019-05-17T02:22:31.174Z,30.20
2019-05-17T02:25:02.172Z,30.30
2019-05-17T02:27:38.249Z,30.40
2019-05-17T02:30:07.309Z,30.50
2019-05-17T02:32:38.426Z,30.60
2019-05-17T02:35:28.454Z,30.70
2019-05-17T02:38:02.613Z,30.80
2019-05-17T02:40:34.166Z,30.90
2019-05-17T02:43:04.073Z,31.00
2019-05-17T02:45:34.856Z,31.00
2019-05-17T02:48:05.856Z,31.10
2019-05-17T02:50:37.252Z,31.10
2019-05-17T02:53:13.267Z,31.20
2019-05-17T02:55:45.967Z,31.30
2019-05-17T02:58:18.035Z,31.30
2019-05-17T03:00:53.303Z,31.40
2019-05-17T03:03:25.544Z,31.50
2019-05-17T03:05:56.480Z,31.60
2019-05-17T03:08:27.140Z,31.70
2019-05-17T03:10:57.807Z,31.70
2019-05-17T03:13:28.703Z,31.90
2019-05-17T03:16:03.033Z,32.00
2019-05-17T03:18:33.374Z,32.00
2019-05-17T03:21:04.335Z,32.10
2019-05-17T03:23:35.420Z,32.20
2019-05-17T03:26:12.769Z,32.20
2019-05-17T03:28:42.630Z,32.20
2019-05-17T03:31:17.058Z,32.30
2019-05-17T03:33:46.490Z,32.30
2019-05-17T03:36:18.102Z,32.30
2019-05-17T03:38:49.102Z,32.40
2019-05-17T03:41:24.871Z,32.40
2019-05-17T03:43:53.297Z,32.50
2019-05-17T03:46:24.389Z,32.60
2019-05-17T03:48:55.339Z,32.60
2019-05-17T03:51:28.187Z,32.70
2019-05-17T03:54:02.058Z,32.80
2019-05-17T03:56:32.991Z,32.90
2019-05-17T03:59:03.995Z,32.90
2019-05-17T04:01:34.945Z,33.10
2019-05-17T04:04:05.922Z,33.20
2019-05-17T04:06:38.177Z,33.30
2019-05-17T04:09:13.421Z,33.40
2019-05-17T04:11:42.884Z,33.50
2019-05-17T04:14:14.216Z,33.50
2019-05-17T04:16:45.316Z,33.60
2019-05-17T04:19:16.036Z,33.70
2019-05-17T04:21:46.933Z,33.70
2019-05-17T04:24:19.146Z,33.80
2019-05-17T04:26:52.296Z,33.80
2019-05-17T04:29:22.820Z,33.80
2019-05-17T04:31:54.579Z,33.80
2019-05-17T04:34:25.478Z,33.90
2019-05-17T04:36:56.349Z,33.90
2019-05-17T04:39:27.300Z,34.00
2019-05-17T04:41:58.151Z,34.00
2019-05-17T04:44:32.029Z,34.00
2019-05-17T04:47:03.172Z,34.00
2019-05-17T04:49:33.782Z,34.10
2019-05-17T04:52:05.709Z,34.10
2019-05-17T04:54:36.444Z,34.20
2019-05-17T04:57:07.889Z,34.30
2019-05-17T04:59:38.896Z,34.30
2019-05-17T05:02:12.929Z,34.30
2019-05-17T05:04:43.630Z,34.30
2019-05-17T05:07:14.297Z,34.30
2019-05-17T05:09:45.101Z,34.30
2019-05-17T05:12:16.571Z,34.30
2019-05-17T05:14:47.348Z,34.30
2019-05-17T05:17:18.223Z,34.40
2019-05-17T05:19:49.102Z,34.50
2019-05-17T05:22:22.533Z,34.50
2019-05-17T05:24:53.477Z,34.70
2019-05-17T05:27:26.139Z,34.80
2019-05-17T05:29:56.865Z,34.90
2019-05-17T05:32:28.110Z,34.90
2019-05-17T05:34:58.896Z,35.00
2019-05-17T05:37:29.702Z,35.00
2019-05-17T05:40:02.097Z,35.10
2019-05-17T05:42:34.145Z,35.20
2019-05-17T05:45:05.554Z,35.30
2019-05-17T05:47:36.441Z,35.30
2019-05-17T05:50:08.594Z,35.40
2019-05-17T05:52:42.387Z,35.50
2019-05-17T05:55:13.181Z,35.60
2019-05-17T05:57:43.987Z,35.70
2019-05-17T06:00:15.672Z,35.80
2019-05-17T06:02:46.367Z,35.80
2019-05-17T06:05:17.471Z,35.90
2019-05-17T06:07:48.569Z,35.90
2019-05-17T06:10:21.765Z,36.00
2019-05-17T06:12:52.073Z,36.00
2019-05-17T06:15:22.791Z,36.00
2019-05-17T06:17:53.628Z,36.10
2019-05-17T06:20:25.925Z,36.00
2019-05-17T06:22:56.809Z,36.00
2019-05-17T06:25:27.793Z,36.10
2019-05-17T06:27:58.493Z,36.10
2019-05-17T06:30:29.397Z,36.30
2019-05-17T06:33:02.244Z,36.30
2019-05-17T06:35:32.795Z,36.50
2019-05-17T06:38:03.793Z,36.50
2019-05-17T06:40:34.624Z,36.60
2019-05-17T06:43:05.587Z,36.60
2019-05-17T06:45:36.613Z,36.50
2019-05-17T06:48:07.546Z,36.40
2019-05-17T06:50:38.525Z,36.40
2019-05-17T06:53:11.976Z,36.30
2019-05-17T06:55:42.677Z,36.20
2019-05-17T06:58:13.698Z,36.10
2019-05-17T07:00:44.594Z,36.00
2019-05-17T07:03:15.574Z,35.90
2019-05-17T07:05:50.101Z,35.80
2019-05-17T07:08:20.190Z,35.60
2019-05-17T07:10:51.276Z,35.50
2019-05-17T07:13:22.046Z,35.50
2019-05-17T07:15:53.042Z,35.40
2019-05-17T07:18:23.818Z,35.40
2019-05-17T07:20:54.693Z,35.30
2019-05-17T07:23:25.781Z,35.20
2019-05-17T07:25:56.719Z,35.30
2019-05-17T07:28:27.504Z,35.20
2019-05-17T07:30:59.688Z,35.20
2019-05-17T07:33:30.749Z,35.20
2019-05-17T07:36:01.729Z,35.20
2019-05-17T07:38:32.596Z,35.20
2019-05-17T07:41:03.604Z,35.10
2019-05-17T07:43:34.597Z,35.10
2019-05-17T07:46:05.584Z,35.10
2019-05-17T07:48:36.548Z,35.10
2019-05-17T07:51:09.962Z,35.00
2019-05-17T07:53:40.077Z,34.90
2019-05-17T07:56:11.257Z,35.00
2019-05-17T07:58:42.138Z,34.90
2019-05-17T08:01:13.047Z,34.90
2019-05-17T08:03:44.015Z,34.90
2019-05-17T08:06:14.893Z,34.90
2019-05-17T08:08:45.755Z,34.80
2019-05-17T08:11:16.718Z,34.80
2019-05-17T08:13:47.409Z,34.70
2019-05-17T08:16:19.627Z,34.70
2019-05-17T08:18:50.298Z,34.80
2019-05-17T08:21:21.083Z,34.70
2019-05-17T08:23:52.046Z,34.80
2019-05-17T08:26:23.041Z,34.80
2019-05-17T08:28:53.975Z,34.80
2019-05-17T08:31:24.968Z,35.00
2019-05-17T08:33:55.841Z,35.00
2019-05-17T08:36:26.644Z,35.00
2019-05-17T08:38:59.508Z,35.10
2019-05-17T08:41:30.974Z,35.10
2019-05-17T08:44:02.224Z,35.10
2019-05-17T08:46:33.195Z,35.10
2019-05-17T08:49:04.089Z,35.10
2019-05-17T08:51:34.988Z,35.10
2019-05-17T08:54:06.037Z,35.10
2019-05-17T08:56:40.021Z,35.20
2019-05-17T08:59:09.695Z,35.30
2019-05-17T09:01:41.735Z,35.30
2019-05-17T09:04:13.199Z,35.40
2019-05-17T09:06:44.129Z,35.40
2019-05-17T09:09:15.088Z,35.40
2019-05-17T09:11:46.080Z,35.40
2019-05-17T09:14:17.034Z,35.50
2019-05-17T09:16:50.319Z,35.50
2019-05-17T09:19:20.422Z,35.40
2019-05-17T09:21:51.175Z,35.40
2019-05-17T09:24:22.231Z,35.40
2019-05-17T09:26:53.242Z,35.40
2019-05-17T09:29:24.087Z,35.50
2019-05-17T09:31:55.183Z,35.40
2019-05-17T09:34:26.078Z,35.40
2019-05-17T09:36:57.088Z,35.40
2019-05-17T09:39:29.500Z,35.30
2019-05-17T09:42:00.138Z,35.30
2019-05-17T09:44:31.268Z,35.30
2019-05-17T09:47:02.292Z,35.30
2019-05-17T09:49:33.287Z,35.30
2019-05-17T09:52:04.245Z,35.20
2019-05-17T09:54:42.333Z,35.20
2019-05-17T09:57:09.757Z,35.10
2019-05-17T09:59:40.495Z,35.10
2019-05-17T10:02:11.670Z,35.10
2019-05-17T10:04:42.557Z,35.00
2019-05-17T10:07:13.554Z,34.90
2019-05-17T10:09:44.532Z,34.90
2019-05-17T10:12:15.404Z,34.90
2019-05-17T10:14:46.073Z,34.90
2019-05-17T10:17:16.758Z,34.90
2019-05-17T10:19:47.555Z,34.80
2019-05-17T10:22:20.034Z,34.80
2019-05-17T10:24:50.849Z,34.70
2019-05-17T10:27:21.761Z,34.80
2019-05-17T10:29:52.833Z,34.70
2019-05-17T10:32:23.800Z,34.70
2019-05-17T10:34:54.661Z,34.70
2019-05-17T10:37:25.635Z,34.70
2019-05-17T10:39:56.429Z,34.70
2019-05-17T10:42:27.079Z,34.70
2019-05-17T10:44:59.791Z,34.60
2019-05-17T10:47:30.329Z,34.60
2019-05-17T10:50:01.456Z,34.60
2019-05-17T10:52:32.477Z,34.60
2019-05-17T10:55:03.360Z,34.50
2019-05-17T10:57:34.054Z,34.50
2019-05-17T11:00:05.946Z,34.40
2019-05-17T11:02:36.730Z,34.40
2019-05-17T11:05:10.323Z,34.40
2019-05-17T11:07:40.667Z,34.30
2019-05-17T11:10:12.189Z,34.30
2019-05-17T11:12:43.240Z,34.30
2019-05-17T11:15:14.054Z,34.20
2019-05-17T11:17:44.697Z,34.20
2019-05-17T11:20:15.442Z,34.20
2019-05-17T11:22:46.273Z,34.10
2019-05-17T11:25:17.312Z,34.10
2019-05-17T11:27:48.249Z,34.10
2019-05-17T11:30:20.312Z,34.10
2019-05-17T11:32:51.199Z,34.10
2019-05-17T11:35:24.704Z,34.10
2019-05-17T11:37:54.421Z,34.00
2019-05-17T11:40:25.301Z,34.00
2019-05-17T11:42:56.284Z,34.00
2019-05-17T11:45:30.247Z,33.90
2019-05-17T11:47:59.277Z,33.90
2019-05-17T11:50:30.160Z,33.90
2019-05-17T11:53:01.030Z,33.90
2019-05-17T11:55:32.024Z,33.80
2019-05-17T11:58:02.923Z,33.80
2019-05-17T12:00:33.827Z,33.70
2019-05-17T12:03:04.812Z,33.70
2019-05-17T12:05:35.803Z,33.70
2019-05-17T12:08:08.685Z,33.70
2019-05-17T12:10:39.076Z,33.70
2019-05-17T12:13:10.128Z,33.60
2019-05-17T12:15:45.211Z,33.60
2019-05-17T12:18:13.265Z,33.60
2019-05-17T12:20:44.301Z,33.50
2019-05-17T12:23:15.178Z,33.60
2019-05-17T12:25:46.270Z,33.60
2019-05-17T12:28:16.944Z,33.60
2019-05-17T12:30:47.904Z,33.50
2019-05-17T12:33:18.901Z,33.50
2019-05-17T12:35:49.794Z,33.50
2019-05-17T12:38:20.772Z,33.40
2019-05-17T12:40:51.817Z,33.40
2019-05-17T12:43:22.859Z,33.40
2019-05-17T12:46:00.762Z,33.30
2019-05-17T12:48:26.125Z,33.30
2019-05-17T12:50:56.999Z,33.30
2019-05-17T12:53:30.265Z,33.30
2019-05-17T12:56:00.982Z,33.30
2019-05-17T12:58:31.673Z,33.30
2019-05-17T13:01:02.641Z,33.20
2019-05-17T13:03:33.550Z,33.20
2019-05-17T13:06:04.340Z,33.20
2019-05-17T13:08:35.242Z,33.20
2019-05-17T13:11:06.115Z,33.20
2019-05-17T13:13:36.776Z,33.20
2019-05-17T13:16:17.317Z,33.20
2019-05-17T13:18:39.900Z,33.20
2019-05-17T13:21:10.576Z,33.20
2019-05-17T13:23:41.289Z,33.20
2019-05-17T13:26:12.236Z,33.10
2019-05-17T13:28:43.212Z,33.10
2019-05-17T13:31:14.252Z,33.10
2019-05-17T13:33:45.266Z,33.10
2019-05-17T13:36:16.093Z,33.10
2019-05-17T13:38:47.378Z,33.10
2019-05-17T13:41:18.366Z,33.00
2019-05-17T13:43:52.350Z,33.00
2019-05-17T13:46:32.836Z,33.00
2019-05-17T13:51:32.496Z,33.00
2019-05-17T13:54:05.037Z,33.00
2019-05-17T13:56:37.928Z,33.00
2019-05-17T13:59:08.952Z,32.90
2019-05-17T14:01:39.855Z,32.90
2019-05-17T14:04:10.610Z,32.90
2019-05-17T14:06:41.554Z,32.90
2019-05-17T14:09:12.258Z,32.80
2019-05-17T14:11:43.217Z,32.80
2019-05-17T14:14:14.612Z,32.80
2019-05-17T14:16:46.124Z,32.80
2019-05-17T14:19:17.184Z,32.80
2019-05-17T14:21:48.102Z,32.80
2019-05-17T14:24:19.373Z,32.70
2019-05-17T14:26:50.391Z,32.70
2019-05-17T14:29:21.356Z,32.70
2019-05-17T14:31:52.381Z,32.60
2019-05-17T14:34:23.322Z,32.60
2019-05-17T14:36:54.309Z,32.60
2019-05-17T14:39:25.158Z,32.50
2019-05-17T14:41:55.855Z,32.40
2019-05-17T14:44:26.571Z,32.40
2019-05-17T14:46:57.297Z,32.40
2019-05-17T14:49:34.219Z,32.30
2019-05-17T14:52:05.069Z,32.30
2019-05-17T14:54:36.035Z,32.30
2019-05-17T14:57:07.045Z,32.30
2019-05-17T14:59:38.607Z,32.30
2019-05-17T15:02:09.301Z,32.30
2019-05-17T15:04:40.307Z,32.30
2019-05-17T15:07:11.664Z,32.30
2019-05-17T15:09:42.419Z,32.30
2019-05-17T15:12:27.314Z,32.30
2019-05-17T15:14:45.913Z,32.30
2019-05-17T15:17:16.625Z,32.30
2019-05-17T15:19:50.964Z,32.30
2019-05-17T15:22:19.560Z,32.20
2019-05-17T15:24:50.323Z,32.20
2019-05-17T15:27:21.190Z,32.10
2019-05-17T15:29:51.914Z,32.10
2019-05-17T15:32:22.619Z,32.10
2019-05-17T15:34:54.522Z,32.00
2019-05-17T15:37:25.702Z,32.00
2019-05-17T15:39:56.920Z,31.90
2019-05-17T15:42:41.867Z,31.90
2019-05-17T15:45:00.476Z,31.90
2019-05-17T15:47:31.516Z,31.90
2019-05-17T15:50:02.273Z,31.80
2019-05-17T15:52:32.968Z,31.80
2019-05-17T15:55:03.680Z,31.70
2019-05-17T15:57:34.545Z,31.70
2019-05-17T16:00:06.735Z,31.70
2019-05-17T16:02:46.950Z,31.70
2019-05-17T16:05:17.903Z,31.70
2019-05-17T16:07:48.579Z,31.70
2019-05-17T16:10:19.477Z,31.70
2019-05-17T16:13:01.690Z,31.70
2019-05-17T16:15:22.721Z,31.60
2019-05-17T16:17:53.495Z,31.60
2019-05-17T16:20:24.573Z,31.60
2019-05-17T16:22:55.797Z,31.60
2019-05-17T16:25:26.779Z,31.60
2019-05-17T16:27:57.484Z,31.50
2019-05-17T16:30:28.162Z,31.50
2019-05-17T16:32:59.035Z,31.50
2019-05-17T16:35:29.713Z,31.50
2019-05-17T16:38:00.665Z,31.40
2019-05-17T16:40:31.512Z,31.40
2019-05-17T16:43:17.054Z,31.40
2019-05-17T16:45:37.557Z,31.30
2019-05-17T16:48:08.251Z,31.30
2019-05-17T16:50:38.931Z,31.30
2019-05-17T16:53:09.727Z,31.20
2019-05-17T16:55:40.409Z,31.20
2019-05-17T16:58:11.301Z,31.20
2019-05-17T17:00:44.682Z,31.20
2019-05-17T17:03:15.697Z,31.20
2019-05-17T17:05:46.608Z,31.20
2019-05-17T17:08:17.460Z,31.10
2019-05-17T17:10:48.653Z,31.10
2019-05-17T17:13:32.431Z,31.10
2019-05-17T17:15:51.466Z,31.00
2019-05-17T17:18:22.520Z,31.00
2019-05-17T17:20:53.197Z,30.90
2019-05-17T17:23:24.050Z,30.90
2019-05-17T17:25:54.953Z,30.90
2019-05-17T17:28:26.141Z,30.90
2019-05-17T17:30:57.593Z,30.80
2019-05-17T17:33:29.795Z,30.80
2019-05-17T17:36:00.903Z,30.70
2019-05-17T17:38:31.616Z,30.70
2019-05-17T17:41:02.378Z,30.70
2019-05-17T17:43:33.296Z,30.60
2019-05-17T17:46:03.987Z,30.70
2019-05-17T17:48:34.687Z,30.60
2019-05-17T17:51:05.410Z,30.60
2019-05-17T17:53:36.244Z,30.50
2019-05-17T17:56:26.134Z,30.40
2019-05-17T17:58:56.842Z,30.40
2019-05-17T18:01:27.701Z,30.40
2019-05-17T18:03:58.604Z,30.40
2019-05-17T18:06:29.397Z,30.30
2019-05-17T18:09:00.488Z,30.30
2019-05-17T18:11:31.185Z,30.30
2019-05-17T18:14:13.068Z,30.30
2019-05-17T18:19:04.799Z,30.30
2019-05-17T18:21:36.204Z,30.30
2019-05-17T18:24:07.483Z,30.30
2019-05-17T18:26:38.250Z,30.30
2019-05-17T18:29:08.884Z,30.30
2019-05-17T18:34:10.243Z,30.20
2019-05-17T18:36:42.278Z,30.20
2019-05-17T18:41:43.245Z,30.20
2019-05-17T18:44:27.128Z,30.10
2019-05-17T18:46:46.070Z,30.10
2019-05-17T18:49:16.787Z,30.20
2019-05-17T18:51:47.870Z,30.20
2019-05-17T18:54:18.641Z,30.10
2019-05-17T18:56:49.679Z,30.10
2019-05-17T18:59:20.369Z,30.00
2019-05-17T19:01:51.119Z,30.00
2019-05-17T19:04:21.992Z,30.00
2019-05-17T19:06:52.701Z,30.00
2019-05-17T19:09:23.430Z,30.00
2019-05-17T19:11:54.127Z,30.00
2019-05-17T19:14:24.921Z,30.00
2019-05-17T19:16:56.379Z,30.00
2019-05-17T19:19:27.050Z,29.90
2019-05-17T19:21:57.735Z,29.90
2019-05-17T19:24:28.404Z,29.90
2019-05-17T19:27:00.354Z,29.80
2019-05-17T19:29:31.083Z,29.90
2019-05-17T19:32:01.802Z,29.90
2019-05-17T19:34:32.575Z,29.80
2019-05-17T19:37:03.260Z,29.80
2019-05-17T19:39:33.905Z,29.80
2019-05-17T19:42:04.836Z,29.80
2019-05-17T19:44:35.718Z,29.80
2019-05-17T19:47:07.072Z,29.80
2019-05-17T19:49:37.802Z,29.80
2019-05-17T19:52:08.466Z,29.80
2019-05-17T19:54:39.168Z,29.80
2019-05-17T19:57:09.921Z,29.70
2019-05-17T19:59:40.878Z,29.70
2019-05-17T20:02:11.667Z,29.70
2019-05-17T20:04:42.715Z,29.70
2019-05-17T20:07:13.745Z,29.70
2019-05-17T20:09:47.245Z,29.60
2019-05-17T20:12:21.012Z,29.70
2019-05-17T20:14:51.906Z,29.70
2019-05-17T20:17:22.980Z,29.70
2019-05-17T20:19:53.756Z,29.60
2019-05-17T20:22:24.435Z,29.60
2019-05-17T20:24:59.873Z,29.60
2019-05-17T20:27:30.676Z,29.50
2019-05-17T20:30:03.088Z,29.60
2019-05-17T20:32:34.938Z,29.50
2019-05-17T20:35:06.918Z,29.50
2019-05-17T20:37:37.571Z,29.40
2019-05-17T20:40:09.190Z,29.40
2019-05-17T20:42:39.875Z,29.50
2019-05-17T20:45:10.865Z,29.50
2019-05-17T20:47:41.628Z,29.50
2019-05-17T20:50:13.577Z,29.50
2019-05-17T20:52:44.268Z,29.50
2019-05-17T20:55:15.413Z,29.40
2019-05-17T20:57:46.151Z,29.40
2019-05-17T21:00:17.330Z,29.40
2019-05-17T21:02:48.087Z,29.40
2019-05-17T21:05:19.456Z,29.40
2019-05-17T21:07:50.168Z,29.40
2019-05-17T21:10:20.903Z,29.40
2019-05-17T21:12:51.610Z,29.30
2019-05-17T21:15:22.295Z,29.30
2019-05-17T21:17:53.303Z,29.30
2019-05-17T21:20:24.231Z,29.30
2019-05-17T21:22:54.914Z,29.30
2019-05-17T21:25:25.840Z,29.20
2019-05-17T21:27:56.494Z,29.30
2019-05-17T21:30:27.220Z,29.20
2019-05-17T21:32:58.167Z,29.20
2019-05-17T21:35:28.912Z,29.10
2019-05-17T21:37:59.562Z,29.10
2019-05-17T21:40:30.182Z,29.10
2019-05-17T21:43:00.956Z,29.10
2019-05-17T21:45:31.693Z,29.10
2019-05-17T21:48:02.341Z,29.00
2019-05-17T21:50:33.156Z,29.10
2019-05-17T21:53:03.814Z,29.00
2019-05-17T21:55:34.537Z,29.10
2019-05-17T21:58:05.294Z,29.00
2019-05-17T22:00:39.882Z,29.10
2019-05-17T22:03:10.885Z,29.00
2019-05-17T22:05:42.292Z,29.00
2019-05-17T22:08:20.365Z,28.90
2019-05-17T22:10:52.080Z,28.90
2019-05-17T22:13:22.752Z,28.90
2019-05-17T22:15:53.633Z,28.90
2019-05-17T22:18:24.408Z,28.90
2019-05-17T22:20:55.166Z,28.80
2019-05-17T22:23:25.926Z,28.90
2019-05-17T22:25:56.602Z,28.80
2019-05-17T22:28:27.303Z,28.80
2019-05-17T22:30:58.158Z,28.80
2019-05-17T22:33:28.905Z,28.80
2019-05-17T22:35:59.795Z,28.80
2019-05-17T22:38:30.472Z,28.80
2019-05-17T22:41:01.307Z,28.80
2019-05-17T22:43:32.294Z,28.70
2019-05-17T22:46:02.922Z,28.70
2019-05-17T22:48:33.684Z,28.70
2019-05-17T22:51:04.515Z,28.70
2019-05-17T22:53:35.202Z,28.70
2019-05-17T22:56:05.956Z,28.60
2019-05-17T22:58:36.611Z,28.60
2019-05-17T23:01:07.607Z,28.60
2019-05-17T23:03:38.483Z,28.50
2019-05-17T23:08:40.415Z,28.50
2019-05-17T23:11:11.220Z,28.50
2019-05-17T23:13:41.852Z,28.50
2019-05-17T23:16:13.863Z,28.40
2019-05-17T23:18:45.914Z,28.50
2019-05-17T23:21:16.570Z,28.50
2019-05-17T23:23:47.382Z,28.50
2019-05-17T23:26:18.071Z,28.50
2019-05-17T23:28:48.747Z,28.50
2019-05-17T23:31:19.531Z,28.50
2019-05-17T23:33:55.808Z,28.50
2019-05-17T23:36:26.838Z,28.60
2019-05-17T23:38:57.858Z,28.70
2019-05-17T23:41:28.825Z,28.70
2019-05-17T23:43:59.499Z,28.80
2019-05-17T23:46:30.193Z,28.80
2019-05-17T23:49:01.193Z,28.80
2019-05-17T23:51:31.951Z,28.80
2019-05-17T23:54:02.674Z,28.80
2019-05-17T23:56:33.628Z,28.90
2019-05-17T23:59:04.625Z,28.90
